createdAt,value
2016-10-07T00:00:15.648Z,0
2016-10-07T00:01:15.654Z,0
2016-10-07T00:02:15.675Z,0
2016-10-07T00:03:15.675Z,0
2016-10-07T00:04:15.713Z,0
2016-10-07T00:05:15.717Z,0
2016-10-07T00:06:15.726Z,0
2016-10-07T00:07:15.759Z,0
2016-10-07T00:08:15.786Z,0
2016-10-07T00:09:15.794Z,0
2016-10-07T00:10:15.810Z,0
2016-10-07T00:11:15.824Z,0
2016-10-07T00:12:15.838Z,0
2016-10-07T00:13:15.854Z,0
2016-10-07T00:14:15.870Z,0
2016-10-07T00:15:15.899Z,0
2016-10-07T00:16:15.905Z,0
2016-10-07T00:17:15.933Z,0
2016-10-07T00:18:15.935Z,0
2016-10-07T00:19:15.952Z,0
2016-10-07T00:20:16.008Z,0
2016-10-07T00:21:16.046Z,0
2016-10-07T00:22:16.052Z,0
2016-10-07T00:23:16.046Z,0
2016-10-07T00:24:16.089Z,0
2016-10-07T00:25:16.083Z,0
2016-10-07T00:26:16.105Z,0
2016-10-07T00:27:16.131Z,0
2016-10-07T00:28:16.142Z,0
2016-10-07T00:29:16.486Z,0
2016-10-07T00:30:16.166Z,0
2016-10-07T00:31:16.189Z,0
2016-10-07T00:32:16.206Z,0
2016-10-07T00:33:16.228Z,0
2016-10-07T00:34:16.252Z,0
2016-10-07T00:35:16.262Z,0
2016-10-07T00:36:16.286Z,0
2016-10-07T00:37:16.293Z,0
2016-10-07T00:38:16.333Z,0
2016-10-07T00:39:16.316Z,0
2016-10-07T00:40:16.337Z,0
2016-10-07T00:41:16.349Z,0
2016-10-07T00:42:16.372Z,0
2016-10-07T00:43:16.394Z,0
2016-10-07T00:44:16.404Z,0
2016-10-07T00:45:16.431Z,0
2016-10-07T00:46:16.451Z,0
2016-10-07T00:47:16.441Z,0
2016-10-07T00:48:16.489Z,0
2016-10-07T00:49:16.476Z,0
2016-10-07T00:50:16.516Z,0
2016-10-07T00:51:16.517Z,0
2016-10-07T00:52:16.540Z,0
2016-10-07T00:53:16.550Z,0
2016-10-07T00:54:16.579Z,0
2016-10-07T00:55:16.601Z,0
2016-10-07T00:56:16.585Z,0
2016-10-07T00:57:16.603Z,0
2016-10-07T00:58:16.642Z,0
2016-10-07T00:59:16.646Z,0
2016-10-07T01:00:16.676Z,0
2016-10-07T01:01:16.683Z,0
2016-10-07T01:02:16.712Z,0
2016-10-07T01:03:16.719Z,0
2016-10-07T01:04:16.734Z,0
2016-10-07T01:05:16.750Z,0
2016-10-07T01:06:16.754Z,0
2016-10-07T01:07:16.780Z,0
2016-10-07T01:08:16.828Z,0
2016-10-07T01:09:16.805Z,0
2016-10-07T01:10:16.819Z,0
2016-10-07T01:11:16.871Z,0
2016-10-07T01:12:16.860Z,0
2016-10-07T01:13:16.881Z,0
2016-10-07T01:14:16.891Z,0
2016-10-07T01:15:16.912Z,0
2016-10-07T01:16:16.929Z,0
2016-10-07T01:17:16.959Z,0
2016-10-07T01:18:16.959Z,0
2016-10-07T01:19:16.999Z,0
2016-10-07T01:20:16.971Z,0
2016-10-07T01:21:17.014Z,0
2016-10-07T01:22:17.033Z,0
2016-10-07T01:23:17.049Z,0
2016-10-07T01:24:17.061Z,0
2016-10-07T01:25:17.081Z,0
2016-10-07T01:26:17.095Z,0
2016-10-07T01:27:17.123Z,0
2016-10-07T01:28:17.128Z,0
2016-10-07T01:29:17.139Z,0
2016-10-07T01:30:17.158Z,0
2016-10-07T01:31:17.170Z,0
2016-10-07T01:32:17.181Z,0
2016-10-07T01:33:17.208Z,0
2016-10-07T01:34:17.246Z,0
2016-10-07T01:35:17.248Z,0
2016-10-07T01:36:17.263Z,0
2016-10-07T01:37:17.288Z,0
2016-10-07T01:38:17.305Z,0
2016-10-07T01:39:17.314Z,0
2016-10-07T01:40:17.323Z,0
2016-10-07T01:41:17.348Z,0
2016-10-07T01:42:17.341Z,0
2016-10-07T01:43:17.370Z,0
2016-10-07T01:44:17.383Z,0
2016-10-07T01:45:17.410Z,0
2016-10-07T01:46:17.427Z,0
2016-10-07T01:47:17.435Z,0
2016-10-07T01:48:17.448Z,0
2016-10-07T01:49:17.483Z,0
2016-10-07T01:50:17.498Z,0
2016-10-07T01:51:17.522Z,0
2016-10-07T01:52:17.533Z,0
2016-10-07T01:53:17.852Z,0
2016-10-07T01:54:17.553Z,0
2016-10-07T01:55:17.557Z,0
2016-10-07T01:56:17.594Z,0
2016-10-07T01:57:17.612Z,0
2016-10-07T01:58:17.631Z,0
2016-10-07T01:59:17.659Z,0
2016-10-07T02:00:17.658Z,0
2016-10-07T02:01:17.642Z,0
2016-10-07T02:02:17.690Z,0
2016-10-07T02:03:17.707Z,0
2016-10-07T02:04:17.713Z,0
2016-10-07T02:05:17.720Z,0
2016-10-07T02:06:17.753Z,0
2016-10-07T02:07:17.762Z,0
2016-10-07T02:08:17.774Z,0
2016-10-07T02:09:17.811Z,0
2016-10-07T02:10:17.828Z,0
2016-10-07T02:11:17.829Z,0
2016-10-07T02:12:17.852Z,0
2016-10-07T02:13:17.857Z,0
2016-10-07T02:14:17.870Z,0
2016-10-07T02:15:17.907Z,0
2016-10-07T02:16:17.909Z,0
2016-10-07T02:17:17.930Z,0
2016-10-07T02:18:17.937Z,0
2016-10-07T02:19:17.948Z,0
2016-10-07T02:20:17.982Z,0
2016-10-07T02:21:17.991Z,0
2016-10-07T02:22:18.053Z,0
2016-10-07T02:23:18.017Z,0
2016-10-07T02:24:18.064Z,0
2016-10-07T02:25:18.072Z,0
2016-10-07T02:26:18.077Z,0
2016-10-07T02:27:18.078Z,0
2016-10-07T02:28:18.133Z,0
2016-10-07T02:29:18.120Z,0
2016-10-07T02:30:18.141Z,0
2016-10-07T02:31:18.177Z,0
2016-10-07T02:32:18.169Z,0
2016-10-07T02:33:18.190Z,0
2016-10-07T02:34:18.233Z,0
2016-10-07T02:35:18.241Z,0
2016-10-07T02:36:18.241Z,0
2016-10-07T02:37:18.258Z,0
2016-10-07T02:38:18.271Z,0
2016-10-07T02:39:18.306Z,0
2016-10-07T02:40:18.314Z,0
2016-10-07T02:41:18.339Z,0
2016-10-07T02:42:18.346Z,0
2016-10-07T02:43:18.367Z,0
2016-10-07T02:44:18.371Z,0
2016-10-07T02:45:18.396Z,0
2016-10-07T02:46:18.399Z,0
2016-10-07T02:47:18.422Z,0
2016-10-07T02:48:18.434Z,0
2016-10-07T02:49:18.456Z,0
2016-10-07T02:50:18.476Z,0
2016-10-07T02:51:18.512Z,0
2016-10-07T02:52:18.513Z,0
2016-10-07T02:53:18.515Z,0
2016-10-07T02:54:18.552Z,0
2016-10-07T02:55:18.566Z,0
2016-10-07T02:56:18.571Z,0
2016-10-07T02:57:18.582Z,0
2016-10-07T02:58:18.615Z,0
2016-10-07T02:59:18.636Z,0
2016-10-07T03:00:18.647Z,0
2016-10-07T03:01:18.663Z,0
2016-10-07T03:02:18.660Z,0
2016-10-07T03:03:18.697Z,0
2016-10-07T03:04:18.715Z,0
2016-10-07T03:05:18.736Z,0
2016-10-07T03:06:18.724Z,0
2016-10-07T03:07:18.765Z,0
2016-10-07T03:08:18.762Z,0
2016-10-07T03:09:18.784Z,0
2016-10-07T03:10:18.820Z,0
2016-10-07T03:11:18.817Z,0
2016-10-07T03:12:18.872Z,0
2016-10-07T03:13:18.872Z,0
2016-10-07T03:14:18.881Z,0
2016-10-07T03:15:18.873Z,0
2016-10-07T03:16:18.905Z,0
2016-10-07T03:17:18.936Z,0
2016-10-07T03:18:18.941Z,0
2016-10-07T03:19:18.961Z,0
2016-10-07T03:20:18.968Z,0
2016-10-07T03:21:19.003Z,0
2016-10-07T03:22:18.997Z,0
2016-10-07T03:23:19.016Z,0
2016-10-07T03:24:19.058Z,0
2016-10-07T03:25:19.041Z,0
2016-10-07T03:26:19.080Z,0
2016-10-07T03:27:19.102Z,0
2016-10-07T03:28:19.450Z,0
2016-10-07T03:29:19.120Z,0
2016-10-07T03:30:19.124Z,0
2016-10-07T03:31:19.156Z,0
2016-10-07T03:32:19.162Z,0
2016-10-07T03:33:19.180Z,0
2016-10-07T03:34:19.208Z,0
2016-10-07T03:35:19.229Z,0
2016-10-07T03:36:19.246Z,0
2016-10-07T03:37:19.251Z,0
2016-10-07T03:38:19.282Z,0
2016-10-07T03:39:19.278Z,0
2016-10-07T03:40:19.308Z,0
2016-10-07T03:41:19.341Z,0
2016-10-07T03:42:19.343Z,0
2016-10-07T03:43:19.367Z,0
2016-10-07T03:44:19.364Z,0
2016-10-07T03:45:19.384Z,0
2016-10-07T03:46:19.386Z,0
2016-10-07T03:47:19.420Z,0
2016-10-07T03:48:19.425Z,0
2016-10-07T03:49:19.451Z,0
2016-10-07T03:50:19.464Z,0
2016-10-07T03:51:19.481Z,0
2016-10-07T03:52:19.509Z,0
2016-10-07T03:53:19.496Z,0
2016-10-07T03:54:19.528Z,0
2016-10-07T03:55:19.549Z,0
2016-10-07T03:56:19.566Z,0
2016-10-07T03:57:19.571Z,0
2016-10-07T03:58:19.614Z,0
2016-10-07T03:59:19.601Z,0
2016-10-07T04:01:49.285Z,0
2016-10-07T04:02:19.981Z,0
2016-10-07T04:03:19.668Z,0
2016-10-07T04:04:19.656Z,0
2016-10-07T04:05:19.681Z,0
2016-10-07T04:06:19.705Z,0
2016-10-07T04:07:19.726Z,0
2016-10-07T04:08:19.735Z,0
2016-10-07T04:09:19.757Z,0
2016-10-07T04:10:19.774Z,0
2016-10-07T04:11:19.804Z,0
2016-10-07T04:12:19.827Z,0
2016-10-07T04:13:19.835Z,0
2016-10-07T04:14:19.830Z,0
2016-10-07T04:15:19.860Z,0
2016-10-07T04:16:19.873Z,0
2016-10-07T04:17:19.878Z,0
2016-10-07T04:18:19.914Z,0
2016-10-07T04:19:19.902Z,0
2016-10-07T04:20:19.954Z,0
2016-10-07T04:21:19.947Z,0
2016-10-07T04:22:19.949Z,0
2016-10-07T04:23:19.986Z,0
2016-10-07T04:24:20.010Z,0
2016-10-07T04:25:20.027Z,0
2016-10-07T04:26:20.030Z,0
2016-10-07T04:27:20.068Z,0
2016-10-07T04:28:20.064Z,0
2016-10-07T04:29:20.091Z,0
2016-10-07T04:30:20.112Z,0
2016-10-07T04:31:20.132Z,0
2016-10-07T04:32:20.144Z,0
2016-10-07T04:33:20.155Z,0
2016-10-07T04:34:20.169Z,0
2016-10-07T04:35:20.196Z,0
2016-10-07T04:36:20.188Z,0
2016-10-07T04:37:20.221Z,0
2016-10-07T04:38:20.242Z,0
2016-10-07T04:39:20.261Z,0
2016-10-07T04:40:20.279Z,0
2016-10-07T04:41:20.274Z,0
2016-10-07T04:42:20.297Z,0
2016-10-07T04:43:20.318Z,0
2016-10-07T04:44:20.335Z,0
2016-10-07T04:45:20.355Z,0
2016-10-07T04:46:20.368Z,0
2016-10-07T04:47:20.368Z,0
2016-10-07T04:48:20.399Z,0
2016-10-07T04:49:20.415Z,0
2016-10-07T04:50:20.435Z,0
2016-10-07T04:51:20.450Z,0
2016-10-07T04:52:20.800Z,0
2016-10-07T04:53:20.466Z,0
2016-10-07T04:54:20.498Z,0
2016-10-07T04:55:20.511Z,0
2016-10-07T04:56:20.537Z,0
2016-10-07T04:57:20.519Z,0
2016-10-07T04:58:20.555Z,0
2016-10-07T04:59:20.576Z,0
2016-10-07T05:00:20.569Z,0
2016-10-07T05:01:20.611Z,0
2016-10-07T05:02:20.623Z,0
2016-10-07T05:03:20.645Z,0
2016-10-07T05:04:20.649Z,0
2016-10-07T05:05:20.695Z,0
2016-10-07T05:06:20.705Z,0
2016-10-07T05:07:20.722Z,0
2016-10-07T05:08:20.728Z,0
2016-10-07T05:09:20.759Z,0
2016-10-07T05:10:20.771Z,0
2016-10-07T05:11:20.746Z,0
2016-10-07T05:12:20.785Z,0
2016-10-07T05:13:20.825Z,0
2016-10-07T05:14:20.838Z,0
2016-10-07T05:15:20.835Z,0
2016-10-07T05:16:20.875Z,0
2016-10-07T05:17:20.874Z,0
2016-10-07T05:18:20.890Z,0
2016-10-07T05:19:20.916Z,0
2016-10-07T05:20:20.937Z,0
2016-10-07T05:21:20.937Z,0
2016-10-07T05:22:20.942Z,0
2016-10-07T05:23:20.983Z,0
2016-10-07T05:24:21.000Z,0
2016-10-07T05:25:20.993Z,0
2016-10-07T05:26:21.029Z,0
2016-10-07T05:27:21.037Z,0
2016-10-07T05:28:21.065Z,0
2016-10-07T05:29:21.087Z,0
2016-10-07T05:30:21.083Z,0
2016-10-07T05:31:21.099Z,0
2016-10-07T05:32:21.109Z,0
2016-10-07T05:33:21.124Z,0
2016-10-07T05:34:21.171Z,0
2016-10-07T05:35:21.170Z,0
2016-10-07T05:36:21.202Z,0
2016-10-07T05:37:21.210Z,0
2016-10-07T05:38:21.212Z,0
2016-10-07T05:39:21.231Z,0
2016-10-07T05:40:21.257Z,0
2016-10-07T05:41:21.275Z,0
2016-10-07T05:42:21.306Z,0
2016-10-07T05:43:21.317Z,0
2016-10-07T05:44:21.320Z,0
2016-10-07T05:45:21.342Z,0
2016-10-07T05:46:21.351Z,0
2016-10-07T05:47:21.372Z,0
2016-10-07T05:48:21.390Z,0
2016-10-07T05:49:21.414Z,0
2016-10-07T05:50:21.420Z,0
2016-10-07T05:51:21.440Z,0
2016-10-07T05:52:21.481Z,0
2016-10-07T05:53:21.479Z,0
2016-10-07T05:54:21.487Z,0
2016-10-07T05:55:21.508Z,5
2016-10-07T05:56:21.514Z,5
2016-10-07T05:57:21.543Z,5
2016-10-07T05:58:21.557Z,5
2016-10-07T05:59:21.567Z,5
2016-10-07T06:00:21.593Z,5
2016-10-07T06:01:21.597Z,5
2016-10-07T06:02:21.605Z,5
2016-10-07T06:03:21.627Z,5
2016-10-07T06:04:21.663Z,5
2016-10-07T06:05:21.677Z,5
2016-10-07T06:06:21.673Z,5
2016-10-07T06:07:21.707Z,5
2016-10-07T06:08:21.735Z,5
2016-10-07T06:09:21.735Z,5
2016-10-07T06:10:21.758Z,5
2016-10-07T06:11:21.772Z,5
2016-10-07T06:12:21.788Z,5
2016-10-07T06:13:21.806Z,5
2016-10-07T06:14:21.820Z,5
2016-10-07T06:15:21.820Z,5
2016-10-07T06:16:21.838Z,5
2016-10-07T06:17:21.877Z,5
2016-10-07T06:18:21.885Z,5
2016-10-07T06:19:21.912Z,5
2016-10-07T06:20:21.926Z,5
2016-10-07T06:21:21.948Z,5
2016-10-07T06:22:21.962Z,5
2016-10-07T06:23:21.966Z,5
2016-10-07T06:24:21.994Z,5
2016-10-07T06:25:22.010Z,5
2016-10-07T06:26:22.019Z,5
2016-10-07T06:27:22.055Z,5
2016-10-07T06:28:22.061Z,10
2016-10-07T06:29:22.069Z,10
2016-10-07T06:30:22.073Z,10
2016-10-07T06:31:22.113Z,10
2016-10-07T06:32:22.115Z,10
2016-10-07T06:33:22.139Z,10
2016-10-07T06:34:22.144Z,10
2016-10-07T06:35:22.156Z,10
2016-10-07T06:36:22.194Z,10
2016-10-07T06:37:22.206Z,10
2016-10-07T06:38:22.243Z,10
2016-10-07T06:39:22.239Z,10
2016-10-07T06:40:22.249Z,10
2016-10-07T06:41:22.262Z,10
2016-10-07T06:42:22.293Z,10
2016-10-07T06:43:22.309Z,10
2016-10-07T06:44:22.304Z,10
2016-10-07T06:45:22.334Z,10
2016-10-07T06:46:22.355Z,10
2016-10-07T06:47:22.341Z,10
2016-10-07T06:48:22.384Z,10
2016-10-07T06:49:22.393Z,10
2016-10-07T06:50:22.422Z,10
2016-10-07T06:51:22.422Z,10
2016-10-07T06:52:22.452Z,10
2016-10-07T06:53:22.477Z,15
2016-10-07T06:54:22.487Z,10
2016-10-07T06:55:22.515Z,10
2016-10-07T06:56:22.523Z,10
2016-10-07T06:57:22.540Z,15
2016-10-07T06:58:22.858Z,15
2016-10-07T06:59:22.557Z,15
2016-10-07T07:00:22.569Z,15
2016-10-07T07:01:22.601Z,15
2016-10-07T07:02:22.630Z,15
2016-10-07T07:03:22.625Z,20
2016-10-07T07:04:22.638Z,25
2016-10-07T07:05:22.664Z,25
2016-10-07T07:06:22.669Z,30
2016-10-07T07:07:22.689Z,30
2016-10-07T07:08:22.715Z,30
2016-10-07T07:09:22.733Z,35
2016-10-07T07:10:22.730Z,35
2016-10-07T07:11:22.773Z,35
2016-10-07T07:12:22.770Z,35
2016-10-07T07:13:22.802Z,35
2016-10-07T07:14:22.825Z,35
2016-10-07T07:15:22.823Z,30
2016-10-07T07:16:22.844Z,30
2016-10-07T07:17:22.869Z,30
2016-10-07T07:18:22.884Z,30
2016-10-07T07:19:22.903Z,30
2016-10-07T07:20:22.916Z,30
2016-10-07T07:21:22.925Z,30
2016-10-07T07:22:22.942Z,25
2016-10-07T07:23:22.974Z,30
2016-10-07T07:24:22.981Z,30
2016-10-07T07:25:22.991Z,35
2016-10-07T07:26:23.024Z,35
2016-10-07T07:27:23.020Z,35
2016-10-07T07:28:23.050Z,40
2016-10-07T07:29:23.074Z,35
2016-10-07T07:30:23.080Z,35
2016-10-07T07:31:23.108Z,30
2016-10-07T07:32:23.136Z,25
2016-10-07T07:33:23.122Z,25
2016-10-07T07:34:23.148Z,25
2016-10-07T07:35:23.179Z,25
2016-10-07T07:36:23.203Z,30
2016-10-07T07:37:23.185Z,30
2016-10-07T07:38:23.198Z,35
2016-10-07T07:39:23.232Z,40
2016-10-07T07:40:23.270Z,45
2016-10-07T07:41:23.276Z,45
2016-10-07T07:42:23.284Z,45
2016-10-07T07:43:23.309Z,50
2016-10-07T07:44:23.325Z,60
2016-10-07T07:45:23.351Z,60
2016-10-07T07:46:23.367Z,60
2016-10-07T07:47:23.369Z,50
2016-10-07T07:48:23.376Z,40
2016-10-07T07:49:23.404Z,35
2016-10-07T07:50:23.436Z,35
2016-10-07T07:51:23.444Z,40
2016-10-07T07:52:23.488Z,50
2016-10-07T07:53:23.491Z,60
2016-10-07T07:54:23.482Z,65
2016-10-07T07:55:23.505Z,70
2016-10-07T07:56:23.528Z,70
2016-10-07T07:57:23.547Z,70
2016-10-07T07:58:23.554Z,70
2016-10-07T07:59:23.583Z,70
2016-10-07T08:00:23.596Z,65
2016-10-07T08:01:23.623Z,65
2016-10-07T08:02:23.621Z,65
2016-10-07T08:03:23.691Z,65
2016-10-07T08:04:23.664Z,65
2016-10-07T08:05:23.683Z,60
2016-10-07T08:06:23.675Z,65
2016-10-07T08:07:23.708Z,65
2016-10-07T08:08:23.727Z,65
2016-10-07T08:09:23.749Z,70
2016-10-07T08:10:23.766Z,70
2016-10-07T08:11:23.759Z,65
2016-10-07T08:12:23.793Z,65
2016-10-07T08:13:23.793Z,65
2016-10-07T08:14:23.848Z,65
2016-10-07T08:15:23.869Z,70
2016-10-07T08:16:23.885Z,80
2016-10-07T08:17:23.935Z,85
2016-10-07T08:18:23.902Z,90
2016-10-07T08:19:23.936Z,90
2016-10-07T08:20:23.938Z,85
2016-10-07T08:21:23.995Z,80
2016-10-07T08:22:23.980Z,85
2016-10-07T08:23:24.014Z,90
2016-10-07T08:24:24.011Z,95
2016-10-07T08:25:24.030Z,105
2016-10-07T08:26:24.045Z,115
2016-10-07T08:27:24.057Z,125
2016-10-07T08:28:24.075Z,125
2016-10-07T08:29:24.143Z,120
2016-10-07T08:30:24.118Z,125
2016-10-07T08:31:24.173Z,130
2016-10-07T08:32:24.205Z,135
2016-10-07T08:33:24.173Z,145
2016-10-07T08:34:24.227Z,140
2016-10-07T08:35:24.210Z,145
2016-10-07T08:36:24.233Z,140
2016-10-07T08:37:24.242Z,135
2016-10-07T08:38:24.254Z,135
2016-10-07T08:39:24.275Z,140
2016-10-07T08:40:24.273Z,140
2016-10-07T08:41:24.370Z,140
2016-10-07T08:42:24.354Z,135
2016-10-07T08:43:24.390Z,130
2016-10-07T08:44:24.417Z,125
2016-10-07T08:45:24.384Z,120
2016-10-07T08:46:24.397Z,115
2016-10-07T08:47:24.427Z,115
2016-10-07T08:48:24.428Z,115
2016-10-07T08:49:24.441Z,110
2016-10-07T08:50:24.455Z,105
2016-10-07T08:51:24.481Z,105
2016-10-07T08:52:24.512Z,105
2016-10-07T08:53:24.509Z,105
2016-10-07T08:54:24.536Z,100
2016-10-07T08:55:24.556Z,90
2016-10-07T08:56:24.561Z,90
2016-10-07T08:57:24.603Z,95
2016-10-07T08:58:24.650Z,100
2016-10-07T08:59:24.632Z,110
2016-10-07T09:00:24.648Z,110
2016-10-07T09:01:24.660Z,115
2016-10-07T09:02:24.691Z,115
2016-10-07T09:03:24.688Z,125
2016-10-07T09:04:24.725Z,130
2016-10-07T09:05:24.748Z,135
2016-10-07T09:06:24.759Z,135
2016-10-07T09:07:24.793Z,140
2016-10-07T09:08:24.810Z,140
2016-10-07T09:09:24.824Z,140
2016-10-07T09:10:24.836Z,145
2016-10-07T09:11:24.854Z,150
2016-10-07T09:12:24.881Z,155
2016-10-07T09:13:24.884Z,155
2016-10-07T09:14:24.904Z,145
2016-10-07T09:15:24.933Z,135
2016-10-07T09:16:24.948Z,125
2016-10-07T09:17:24.956Z,120
2016-10-07T09:18:24.969Z,115
2016-10-07T09:19:25.010Z,105
2016-10-07T09:20:25.016Z,100
2016-10-07T09:21:25.041Z,95
2016-10-07T09:22:25.055Z,85
2016-10-07T09:23:25.086Z,90
2016-10-07T09:24:25.094Z,100
2016-10-07T09:25:25.363Z,115
2016-10-07T09:26:25.129Z,130
2016-10-07T09:27:25.162Z,140
2016-10-07T09:28:25.167Z,145
2016-10-07T09:29:25.180Z,155
2016-10-07T09:30:25.190Z,155
2016-10-07T09:31:25.208Z,150
2016-10-07T09:32:25.253Z,150
2016-10-07T09:33:25.253Z,145
2016-10-07T09:34:25.277Z,145
2016-10-07T09:35:25.293Z,145
2016-10-07T09:36:25.319Z,145
2016-10-07T09:37:25.324Z,150
2016-10-07T09:38:25.346Z,155
2016-10-07T09:39:25.374Z,165
2016-10-07T09:40:25.366Z,165
2016-10-07T09:41:25.392Z,160
2016-10-07T09:42:25.428Z,160
2016-10-07T09:43:25.454Z,165
2016-10-07T09:44:25.482Z,165
2016-10-07T09:45:25.472Z,165
2016-10-07T09:46:25.489Z,165
2016-10-07T09:47:25.517Z,160
2016-10-07T09:48:25.529Z,155
2016-10-07T09:49:25.558Z,145
2016-10-07T09:50:25.565Z,140
2016-10-07T09:51:25.613Z,145
2016-10-07T09:52:25.609Z,150
2016-10-07T09:53:25.659Z,150
2016-10-07T09:54:25.648Z,160
2016-10-07T09:55:25.671Z,165
2016-10-07T09:56:25.687Z,175
2016-10-07T09:57:25.711Z,180
2016-10-07T09:58:25.713Z,180
2016-10-07T09:59:25.766Z,180
2016-10-07T10:00:25.756Z,180
2016-10-07T10:01:25.776Z,175
2016-10-07T10:02:25.796Z,170
2016-10-07T10:03:25.798Z,170
2016-10-07T10:04:25.856Z,180
2016-10-07T10:05:25.847Z,165
2016-10-07T10:06:25.873Z,160
2016-10-07T10:07:25.872Z,155
2016-10-07T10:08:25.914Z,155
2016-10-07T10:09:25.925Z,145
2016-10-07T10:10:25.935Z,145
2016-10-07T10:11:25.960Z,135
2016-10-07T10:12:25.978Z,130
2016-10-07T10:13:26.006Z,130
2016-10-07T10:14:26.019Z,125
2016-10-07T10:15:26.042Z,115
2016-10-07T10:16:26.064Z,110
2016-10-07T10:17:26.076Z,110
2016-10-07T10:18:26.096Z,120
2016-10-07T10:19:26.110Z,130
2016-10-07T10:20:26.132Z,135
2016-10-07T10:21:26.140Z,140
2016-10-07T10:22:26.169Z,155
2016-10-07T10:23:26.178Z,165
2016-10-07T10:24:26.221Z,170
2016-10-07T10:25:26.236Z,165
2016-10-07T10:26:26.255Z,155
2016-10-07T10:27:26.253Z,195
2016-10-07T10:28:26.278Z,190
2016-10-07T10:29:26.305Z,190
2016-10-07T10:30:26.325Z,140
2016-10-07T10:31:26.348Z,140
2016-10-07T10:32:26.370Z,150
2016-10-07T10:33:26.374Z,205
2016-10-07T10:34:26.416Z,165
2016-10-07T10:35:26.416Z,165
2016-10-07T10:36:26.418Z,175
2016-10-07T10:37:26.466Z,165
2016-10-07T10:38:26.474Z,165
2016-10-07T10:39:26.488Z,165
2016-10-07T10:40:26.524Z,165
2016-10-07T10:41:26.522Z,165
2016-10-07T10:42:26.557Z,170
2016-10-07T10:43:26.557Z,165
2016-10-07T10:44:26.584Z,155
2016-10-07T10:45:26.614Z,150
2016-10-07T10:46:26.628Z,155
2016-10-07T10:47:26.657Z,160
2016-10-07T10:48:26.657Z,170
2016-10-07T10:49:26.673Z,175
2016-10-07T10:50:26.715Z,175
2016-10-07T10:51:26.719Z,185
2016-10-07T10:52:26.714Z,200
2016-10-07T10:53:26.759Z,200
2016-10-07T10:54:26.802Z,200
2016-10-07T10:55:26.805Z,250
2016-10-07T10:56:26.794Z,215
2016-10-07T10:57:26.858Z,195
2016-10-07T10:58:26.857Z,190
2016-10-07T10:59:26.873Z,185
2016-10-07T11:00:26.892Z,185
2016-10-07T11:01:26.909Z,180
2016-10-07T11:02:26.936Z,190
2016-10-07T11:03:26.944Z,180
2016-10-07T11:04:26.965Z,185
2016-10-07T11:05:26.993Z,185
2016-10-07T11:06:27.004Z,185
2016-10-07T11:07:27.026Z,190
2016-10-07T11:08:27.028Z,190
2016-10-07T11:09:27.056Z,190
2016-10-07T11:10:27.090Z,190
2016-10-07T11:11:27.098Z,190
2016-10-07T11:12:27.108Z,190
2016-10-07T11:13:27.123Z,200
2016-10-07T11:14:27.170Z,205
2016-10-07T11:15:27.185Z,195
2016-10-07T11:16:27.176Z,195
2016-10-07T11:17:27.206Z,200
2016-10-07T11:18:27.240Z,200
2016-10-07T11:19:27.251Z,195
2016-10-07T11:20:27.271Z,190
2016-10-07T11:21:27.288Z,185
2016-10-07T11:22:27.308Z,180
2016-10-07T11:23:27.340Z,175
2016-10-07T11:24:27.359Z,180
2016-10-07T11:25:27.376Z,185
2016-10-07T11:26:27.390Z,190
2016-10-07T11:27:27.399Z,190
2016-10-07T11:28:27.428Z,195
2016-10-07T11:29:27.438Z,200
2016-10-07T11:30:27.455Z,200
2016-10-07T11:31:27.481Z,205
2016-10-07T11:32:27.506Z,205
2016-10-07T11:33:27.522Z,210
2016-10-07T11:34:27.528Z,205
2016-10-07T11:35:27.552Z,200
2016-10-07T11:36:27.603Z,195
2016-10-07T11:37:27.611Z,190
2016-10-07T11:38:27.605Z,190
2016-10-07T11:39:27.641Z,185
2016-10-07T11:40:27.663Z,180
2016-10-07T11:41:27.678Z,180
2016-10-07T11:42:27.698Z,185
2016-10-07T11:43:27.714Z,190
2016-10-07T11:44:27.745Z,195
2016-10-07T11:45:27.761Z,195
2016-10-07T11:46:27.791Z,225
2016-10-07T11:47:27.800Z,260
2016-10-07T11:48:27.806Z,200
2016-10-07T11:49:27.830Z,190
2016-10-07T11:50:27.879Z,175
2016-10-07T11:51:27.865Z,165
2016-10-07T11:52:27.899Z,155
2016-10-07T11:53:27.924Z,155
2016-10-07T11:54:27.953Z,190
2016-10-07T11:55:27.955Z,160
2016-10-07T11:56:27.965Z,155
2016-10-07T11:57:27.998Z,150
2016-10-07T11:58:28.031Z,160
2016-10-07T11:59:28.088Z,145
2016-10-07T12:00:28.104Z,145
2016-10-07T12:01:28.073Z,185
2016-10-07T12:02:28.074Z,110
2016-10-07T12:03:28.111Z,105
2016-10-07T12:04:28.149Z,95
2016-10-07T12:05:28.151Z,90
2016-10-07T12:06:28.173Z,85
2016-10-07T12:07:28.170Z,85
2016-10-07T12:08:28.234Z,80
2016-10-07T12:09:28.254Z,75
2016-10-07T12:10:28.250Z,70
2016-10-07T12:11:28.331Z,70
2016-10-07T12:12:28.359Z,65
2016-10-07T12:13:28.343Z,65
2016-10-07T12:14:28.332Z,60
2016-10-07T12:15:28.352Z,55
2016-10-07T12:16:28.393Z,55
2016-10-07T12:17:28.407Z,50
2016-10-07T12:18:28.413Z,50
2016-10-07T12:19:28.418Z,50
2016-10-07T12:20:28.472Z,55
2016-10-07T12:21:28.480Z,55
2016-10-07T12:22:28.487Z,55
2016-10-07T12:23:28.498Z,60
2016-10-07T12:24:28.529Z,60
2016-10-07T12:25:28.543Z,70
2016-10-07T12:26:28.559Z,115
2016-10-07T12:27:28.592Z,145
2016-10-07T12:28:28.633Z,105
2016-10-07T12:29:28.637Z,115
2016-10-07T12:30:28.633Z,175
2016-10-07T12:31:28.679Z,175
2016-10-07T12:32:28.676Z,175
2016-10-07T12:33:28.749Z,170
2016-10-07T12:34:28.730Z,170
2016-10-07T12:35:28.755Z,185
2016-10-07T12:36:28.775Z,130
2016-10-07T12:37:28.774Z,135
2016-10-07T12:38:28.815Z,130
2016-10-07T12:39:28.799Z,200
2016-10-07T12:40:28.835Z,180
2016-10-07T12:41:28.865Z,210
2016-10-07T12:42:28.870Z,210
2016-10-07T12:43:28.890Z,220
2016-10-07T12:44:28.906Z,220
2016-10-07T12:45:28.945Z,225
2016-10-07T12:46:28.971Z,225
2016-10-07T12:47:28.978Z,220
2016-10-07T12:48:28.999Z,215
2016-10-07T12:49:29.011Z,205
2016-10-07T12:50:29.028Z,200
2016-10-07T12:51:29.047Z,190
2016-10-07T12:52:29.083Z,185
2016-10-07T12:53:29.105Z,170
2016-10-07T12:54:29.112Z,115
2016-10-07T12:55:29.126Z,95
2016-10-07T12:56:29.171Z,90
2016-10-07T12:57:29.172Z,75
2016-10-07T12:58:29.185Z,70
2016-10-07T12:59:29.201Z,65
2016-10-07T13:00:29.254Z,60
2016-10-07T13:01:29.257Z,55
2016-10-07T13:02:29.272Z,55
2016-10-07T13:03:29.295Z,55
2016-10-07T13:04:29.313Z,50
2016-10-07T13:05:29.363Z,45
2016-10-07T13:06:29.373Z,45
2016-10-07T13:07:29.401Z,40
2016-10-07T13:08:29.402Z,40
2016-10-07T13:09:29.405Z,35
2016-10-07T13:10:29.451Z,35
2016-10-07T13:11:29.464Z,35
2016-10-07T13:12:29.461Z,35
2016-10-07T13:13:29.526Z,35
2016-10-07T13:14:29.517Z,35
2016-10-07T13:15:29.549Z,35
2016-10-07T13:16:29.558Z,35
2016-10-07T13:17:29.572Z,35
2016-10-07T13:18:29.584Z,35
2016-10-07T13:19:29.608Z,40
2016-10-07T13:20:29.612Z,40
2016-10-07T13:21:29.650Z,45
2016-10-07T13:22:29.662Z,50
2016-10-07T13:23:29.687Z,50
2016-10-07T13:24:29.706Z,55
2016-10-07T13:25:29.743Z,55
2016-10-07T13:26:29.738Z,55
2016-10-07T13:27:29.766Z,60
2016-10-07T13:28:29.773Z,60
2016-10-07T13:29:29.813Z,65
2016-10-07T13:30:29.836Z,70
2016-10-07T13:31:29.831Z,75
2016-10-07T13:32:29.851Z,80
2016-10-07T13:33:29.870Z,85
2016-10-07T13:34:29.898Z,95
2016-10-07T13:35:29.927Z,105
2016-10-07T13:36:29.916Z,115
2016-10-07T13:37:29.953Z,115
2016-10-07T13:38:29.982Z,120
2016-10-07T13:39:29.986Z,120
2016-10-07T13:40:30.023Z,120
2016-10-07T13:41:30.035Z,125
2016-10-07T13:42:30.033Z,125
2016-10-07T13:43:30.057Z,130
2016-10-07T13:44:30.069Z,135
2016-10-07T13:45:30.091Z,140
2016-10-07T13:46:30.119Z,185
2016-10-07T13:47:30.142Z,185
2016-10-07T13:48:30.149Z,180
2016-10-07T13:49:30.179Z,155
2016-10-07T13:50:30.176Z,180
2016-10-07T13:51:30.213Z,190
2016-10-07T13:52:30.231Z,185
2016-10-07T13:53:30.246Z,170
2016-10-07T13:54:30.276Z,170
2016-10-07T13:55:30.354Z,160
2016-10-07T13:56:30.322Z,135
2016-10-07T13:57:30.315Z,130
2016-10-07T13:58:30.334Z,165
2016-10-07T13:59:30.355Z,170
2016-10-07T14:00:30.372Z,160
2016-10-07T14:01:30.402Z,160
2016-10-07T14:02:30.430Z,160
2016-10-07T14:03:30.419Z,160
2016-10-07T14:04:30.447Z,165
2016-10-07T14:05:30.477Z,165
2016-10-07T14:06:30.498Z,160
2016-10-07T14:07:30.509Z,140
2016-10-07T14:08:30.528Z,135
2016-10-07T14:09:30.548Z,135
2016-10-07T14:10:30.588Z,140
2016-10-07T14:11:30.590Z,150
2016-10-07T14:12:30.603Z,155
2016-10-07T14:13:30.623Z,160
2016-10-07T14:14:30.657Z,140
2016-10-07T14:15:30.658Z,130
2016-10-07T14:16:30.676Z,145
2016-10-07T14:17:30.699Z,125
2016-10-07T14:18:30.758Z,125
2016-10-07T14:19:30.860Z,120
2016-10-07T14:20:30.778Z,135